Flight Track Log - Related Links

Times and Time Zones

All times are in EDT time to prevent confusion due to time zone crossing. See the N650W flight status page for this flight to view local times or setup timezone preferences in your user account.

Time Position Orientation Groundspeed Altitude Reporting Facility
EDT Latitude Longitude Course Direction KTS MPH feet Rate Location/Type
Mon 08:00:45 PM 29.6306 -95.2672 220° Southwest 166 191 600  Level Houston Center
Mon 08:01:58 PM 29.5811 -95.3156 270° West 262 302 3,400 2,286 Climbing Houston Center
Mon 08:02:51 PM 29.5814 -95.3847 282° West 280 322 5,400 2,496 Climbing Houston Center
Mon 08:03:51 PM 29.5978 -95.4714 291° West 272 313 8,100 2,650 Climbing Houston Center
Mon 08:04:51 PM 29.6267 -95.5583 287° West 285 328 10,700 2,550 Climbing Houston Center
Mon 08:05:51 PM 29.6472 -95.6381 285° West 299 344 13,200 2,200 Climbing Houston Center
Mon 08:06:51 PM 29.6694 -95.7344 289° West 310 357 15,100 1,500 Climbing Houston Center
Mon 08:07:51 PM 29.6997 -95.8361 285° West 317 365 16,200 900 Climbing Houston Center
Mon 08:08:51 PM 29.7256 -95.9472 286° West 336 387 16,900 400 Climbing Houston Center
Mon 08:09:51 PM 29.7531 -96.0606 284° West 353 406 17,000 50 Climbing Houston Center
Mon 08:10:51 PM 29.7786 -96.1789 276° West 373 429 17,000  Level Houston Center
Mon 08:11:51 PM 29.7908 -96.3064 274° West 391 450 17,000  Level Houston Center
Mon 08:12:51 PM 29.7989 -96.4383 276° West 391 450 17,000  Level Houston Center
Mon 08:13:51 PM 29.8092 -96.5608 274° West 386 444 17,000  Level Houston Center
Mon 08:14:51 PM 29.8172 -96.6808 274° West 386 444 17,000  Level Houston Center
Mon 08:15:51 PM 29.8253 -96.8008 276° West 386 444 17,000  Level Houston Center
Mon 08:16:51 PM 29.8353 -96.9211 274° West 386 444 17,000  Level Houston Center
Mon 08:17:51 PM 29.8431 -97.0433 274° West 386 444 17,000  Level Houston Center
Mon 08:18:51 PM 29.8506 -97.1636 275° West 386 444 17,000  Level Houston Center
Mon 08:19:51 PM 29.8603 -97.2836 275° West 386 444 17,000  Level Houston Center
Mon 08:20:51 PM 29.8697 -97.4064 273° West 386 444 17,000 63 Level Houston Center
Mon 08:21:26 PM 29.8731 -97.4758 274° West 383 441 17,100 -821 Climbing Houston Center
Mon 08:22:26 PM 29.8806 -97.5961 273° West 375 432 15,700 -1,461 Descending Houston Center
Mon 08:23:21 PM 29.8861 -97.7042 275° West 367 422 14,300 -1,482 Descending Houston Center
Mon 08:23:51 PM 29.8900 -97.7594 273° West 381 438 13,600 -1,075 Descending Houston Center
Mon 08:24:28 PM 29.8931 -97.8289 256° West 368 423 13,100 -989 Descending Houston Center
Mon 08:25:22 PM 29.8694 -97.9353 244° Southwest 374 430 12,100 -1,134 Descending Houston Center
Mon 08:26:35 PM 29.8131 -98.0658 244° Southwest 372 428 10,700 -1,254 Descending Houston Center
Mon 08:27:36 PM 29.7756 -98.1542 243° Southwest 296 341 9,300 -1,409 Descending Houston Center
Mon 08:28:30 PM 29.7450 -98.2242 253° West 273 314 8,000 -1,448 Descending Houston Center
Mon 08:29:03 PM 29.7325 -98.2711 259° West 284 327 7,200 -1,343 Descending Houston Center
Mon 08:29:37 PM 29.7233 -98.3278 259° West 287 330 6,500 -876 Descending Houston Center
Mon 08:30:32 PM 29.7114 -98.3989 258° West 278 320 5,900 -977 Descending Houston Center
Mon 08:31:03 PM 29.7028 -98.4461 259° West 284 327 5,100 -1,516 Descending Houston Center
Mon 08:32:03 PM 29.6883 -98.5286 257° West 279 321 3,600 -1,333 Descending Houston Center
Mon 08:32:33 PM 29.6800 -98.5711 261° West 257 296 3,100 -500 Descending Houston Center
Mon 08:33:03 PM 29.6764 -98.5972 201° Southwest 265 305 3,100  Level Houston Center
Mon 08:34:03 PM 29.6339 -98.6158 125° Southeast 182 209 3,100 -150 Level Houston Center
Mon 08:35:03 PM 29.6050 -98.5686 130° Southeast 116 133 2,800 -650 Descending Houston Center
Mon 08:36:03 PM 29.5758 -98.5283 132° Southeast 151 174 1,800 -1,000 Descending Houston Center
Mon 08:43:32 PM 29.4869 -98.4137 311° West  Level FlightAware Approximate
Mon 08:44:32 PM 29.5475 -98.4927 313° West  Level FlightAware Approximate
Mon 08:45:32 PM 29.6097 -98.5704 313° West  Level FlightAware Approximate

Login

Don't have an account? Register now (free) for customized features, flight alerts, and more!